Metheringham, United Kingdom
Current Conditions -  °F | °C
As of 11:50 AM on Thursday 30 Oct 2014 (Local Time) from EGXW Reporting Station
Haze Haze  
Wind Chill: 61°   Ceiling: 1300
Heat Index: 61°   Visibility: 4mi
Dew Point: 57°   Wind: 12mph
Humidity: 88%   Direction: 230°SW
Pressure: 30"   Gusts: NA
Location:  53.14°N, 0.4°W
Report Text: EGXW 301150Z 23010KT 7000 HZ BKN013 BKN020 16/14 Q1016 GRN BECMG 9999 NSW BKN015 WHT
Loading
Personal Weather Stations






























Interactive Weather Map
Tropical Storm Tracking
New forecast layout! Learn more

10-Day Weather Forecast

Advertisements
Track Severe Weather on mobile